createdAt,value
2023-03-06T00:00:50.637Z,3.83
2023-03-06T00:05:45.613Z,1.48
2023-03-06T00:08:13.381Z,1.08
2023-03-06T00:10:41.596Z,2.17
2023-03-06T00:13:13.102Z,2.25
2023-03-06T00:15:42.399Z,2.50
2023-03-06T00:18:10.362Z,1.10
2023-03-06T00:20:39.870Z,2.15
2023-03-06T00:23:07.548Z,2.53
2023-03-06T00:25:38.451Z,1.98
2023-03-06T00:28:06.357Z,1.60
2023-03-06T00:30:34.496Z,1.05
2023-03-06T00:33:03.407Z,1.50
2023-03-06T00:35:31.004Z,2.13
2023-03-06T00:37:59.709Z,0.45
2023-03-06T00:40:27.575Z,1.60
2023-03-06T00:42:55.271Z,1.75
2023-03-06T00:45:23.059Z,0.75
2023-03-06T00:47:50.873Z,3.17
2023-03-06T00:50:20.088Z,2.58
2023-03-06T00:52:47.703Z,2.35
2023-03-06T00:55:15.353Z,6.05
2023-03-06T00:57:42.968Z,2.97
2023-03-06T01:00:12.364Z,1.25
2023-03-06T01:02:40.163Z,3.30
2023-03-06T01:05:08.982Z,2.78
2023-03-06T01:07:37.993Z,2.35
2023-03-06T01:10:08.521Z,1.90
2023-03-06T01:12:36.238Z,2.35
2023-03-06T01:15:04.489Z,0.57
2023-03-06T01:17:32.115Z,0.43
2023-03-06T01:19:59.754Z,2.42
2023-03-06T01:22:27.313Z,1.23
2023-03-06T01:24:56.254Z,1.02
2023-03-06T01:27:23.978Z,1.42
2023-03-06T01:29:51.626Z,2.60
2023-03-06T01:32:19.238Z,1.08
2023-03-06T01:34:46.860Z,4.47
2023-03-06T01:37:14.568Z,4.57
2023-03-06T01:39:42.231Z,2.60
2023-03-06T01:42:11.278Z,2.58
2023-03-06T01:44:53.772Z,2.53
2023-03-06T01:47:21.375Z,5.07
2023-03-06T01:49:49.036Z,2.92
2023-03-06T01:52:19.080Z,3.30
2023-03-06T01:54:49.899Z,2.17
2023-03-06T01:57:21.745Z,1.60
2023-03-06T01:59:53.017Z,1.45
2023-03-06T02:02:21.200Z,1.25
2023-03-06T02:04:49.204Z,1.92
2023-03-06T02:07:17.948Z,1.58
2023-03-06T02:09:45.580Z,0.47
2023-03-06T02:12:15.815Z,2.50
2023-03-06T02:14:44.931Z,3.58
2023-03-06T02:17:14.502Z,0.95
2023-03-06T02:19:49.434Z,1.90
2023-03-06T02:22:17.347Z,1.88
2023-03-06T02:24:49.848Z,4.65
2023-03-06T02:27:19.838Z,3.25
2023-03-06T02:29:47.572Z,4.38
2023-03-06T02:32:15.284Z,4.90
2023-03-06T02:34:55.211Z,4.00
2023-03-06T02:37:23.832Z,2.67
2023-03-06T02:39:55.960Z,4.03
2023-03-06T02:42:28.808Z,2.03
2023-03-06T02:44:57.511Z,3.25
2023-03-06T02:47:25.229Z,1.13
2023-03-06T02:49:52.906Z,7.88
2023-03-06T02:52:20.650Z,0.88
2023-03-06T02:54:48.322Z,0.82
2023-03-06T02:57:15.899Z,1.55
2023-03-06T02:59:44.883Z,6.13
2023-03-06T03:02:12.502Z,3.50
2023-03-06T03:04:40.219Z,3.25
2023-03-06T03:07:08.160Z,3.33
2023-03-06T03:09:37.313Z,2.25
2023-03-06T03:12:06.482Z,1.45
2023-03-06T03:14:34.155Z,2.45
2023-03-06T03:17:03.199Z,3.00
2023-03-06T03:19:30.887Z,3.42
2023-03-06T03:21:58.530Z,3.75
2023-03-06T03:24:26.739Z,1.73
2023-03-06T03:26:54.443Z,1.40
2023-03-06T03:29:23.363Z,2.47
2023-03-06T03:31:50.977Z,2.97
2023-03-06T03:34:19.922Z,2.10
2023-03-06T03:36:47.692Z,2.53
2023-03-06T03:39:15.522Z,6.05
2023-03-06T03:41:43.169Z,1.10
2023-03-06T03:44:11.396Z,2.75
2023-03-06T03:46:39.150Z,2.03
2023-03-06T03:49:07.232Z,0.57
2023-03-06T03:51:36.295Z,3.40
2023-03-06T03:54:06.035Z,1.60
2023-03-06T03:59:01.356Z,4.53
2023-03-06T04:01:29.374Z,2.00
2023-03-06T04:03:56.970Z,1.98
2023-03-06T04:06:24.549Z,1.95
2023-03-06T04:08:53.472Z,1.48
2023-03-06T04:11:21.127Z,1.90
2023-03-06T04:13:48.760Z,3.15
2023-03-06T04:16:16.457Z,1.38
2023-03-06T04:18:44.112Z,3.53
2023-03-06T04:21:11.690Z,1.10
2023-03-06T04:23:39.348Z,1.20
2023-03-06T04:26:08.494Z,2.85
2023-03-06T04:28:36.813Z,2.80
2023-03-06T04:31:04.561Z,2.38
2023-03-06T04:33:32.273Z,3.88
2023-03-06T04:35:59.919Z,2.80
2023-03-06T04:38:27.643Z,3.45
2023-03-06T04:40:55.239Z,1.42
2023-03-06T04:43:24.424Z,2.17
2023-03-06T04:45:52.156Z,1.13
2023-03-06T04:48:20.042Z,3.05
2023-03-06T04:50:47.855Z,3.33
2023-03-06T04:53:16.822Z,1.50
2023-03-06T04:55:44.436Z,0.98
2023-03-06T04:58:12.736Z,1.95
2023-03-06T05:00:41.874Z,1.60
2023-03-06T05:03:09.787Z,1.75
2023-03-06T05:05:37.414Z,2.90
2023-03-06T05:08:05.362Z,1.33
2023-03-06T05:10:33.068Z,1.27
2023-03-06T05:13:00.660Z,6.47
2023-03-06T05:15:28.262Z,1.25
2023-03-06T05:17:57.440Z,1.95
2023-03-06T05:20:25.203Z,2.78
2023-03-06T05:22:52.891Z,2.08
2023-03-06T05:25:20.596Z,3.22
2023-03-06T05:27:49.092Z,1.77
2023-03-06T05:30:16.942Z,2.50
2023-03-06T05:32:45.158Z,0.77
2023-03-06T05:35:19.713Z,3.13
2023-03-06T05:37:47.412Z,2.05
2023-03-06T05:40:16.081Z,2.38
2023-03-06T05:42:43.928Z,0.45
2023-03-06T05:45:12.724Z,3.33
2023-03-06T05:47:40.367Z,1.53
2023-03-06T05:50:10.289Z,1.30
2023-03-06T05:52:39.908Z,0.13
2023-03-06T05:57:35.778Z,0.65
2023-03-06T06:00:03.874Z,0.30
2023-03-06T06:02:31.595Z,0.47
2023-03-06T06:04:59.324Z,1.17
2023-03-06T06:07:26.934Z,0.57
2023-03-06T06:09:55.940Z,3.90
2023-03-06T06:12:23.615Z,0.50
2023-03-06T06:14:51.399Z,1.58
2023-03-06T06:17:19.128Z,0.77
2023-03-06T06:19:46.838Z,2.03
2023-03-06T06:22:14.507Z,3.17
2023-03-06T06:24:42.111Z,1.77
2023-03-06T06:27:11.241Z,1.13
2023-03-06T06:29:38.874Z,1.75
2023-03-06T06:32:07.161Z,1.92
2023-03-06T06:34:34.763Z,1.10
2023-03-06T06:37:02.397Z,1.88
2023-03-06T06:39:30.399Z,2.60
2023-03-06T06:42:20.244Z,1.15
2023-03-06T06:44:47.001Z,1.02
2023-03-06T06:47:24.077Z,2.42
2023-03-06T06:49:53.298Z,1.00
2023-03-06T06:52:21.114Z,2.17
2023-03-06T06:54:48.741Z,2.92
2023-03-06T06:57:16.650Z,1.45
2023-03-06T06:59:44.324Z,5.43
2023-03-06T07:02:13.527Z,0.80
2023-03-06T07:04:52.767Z,1.52
2023-03-06T07:07:28.510Z,1.73
2023-03-06T07:09:56.364Z,2.42
2023-03-06T07:12:24.165Z,0.50
2023-03-06T07:14:51.795Z,1.33
2023-03-06T07:17:20.777Z,3.25
2023-03-06T07:19:48.577Z,2.30
2023-03-06T07:22:16.233Z,3.53
2023-03-06T07:24:43.972Z,3.50
2023-03-06T07:27:11.697Z,2.00
2023-03-06T07:29:39.293Z,3.50
2023-03-06T07:32:07.439Z,2.80
2023-03-06T07:34:36.463Z,3.35
2023-03-06T07:37:04.151Z,1.45
2023-03-06T07:39:31.939Z,3.08
2023-03-06T07:41:59.603Z,1.63
2023-03-06T07:44:27.325Z,1.67
2023-03-06T07:46:55.005Z,1.83
2023-03-06T07:49:22.643Z,1.50
2023-03-06T07:51:51.581Z,1.88
2023-03-06T07:54:19.237Z,1.33
2023-03-06T07:56:46.895Z,0.85
2023-03-06T07:59:14.531Z,3.75
2023-03-06T08:01:42.148Z,1.40
2023-03-06T14:04:48.061Z,2.70
2023-03-06T14:07:25.063Z,3.40
2023-03-06T14:10:19.861Z,1.60
2023-03-06T14:13:01.578Z,2.75
2023-03-06T14:15:33.270Z,1.58
2023-03-06T14:18:02.942Z,4.35
2023-03-06T14:20:35.222Z,4.55
2023-03-06T14:23:17.335Z,3.03
2023-03-06T14:25:46.525Z,3.88
2023-03-06T14:28:27.165Z,4.15
2023-03-06T14:30:55.688Z,3.72
2023-03-06T14:33:35.980Z,4.13
2023-03-06T14:36:05.180Z,4.25
2023-03-06T14:38:36.590Z,3.50
2023-03-06T14:41:06.211Z,4.93
2023-03-06T14:43:35.190Z,3.70
2023-03-06T14:46:05.102Z,3.53
2023-03-06T14:48:41.966Z,3.50
2023-03-06T14:51:16.071Z,3.33
2023-03-06T14:53:45.398Z,3.83
2023-03-06T14:56:17.456Z,3.65
2023-03-06T14:58:55.154Z,4.37
2023-03-06T15:01:27.844Z,6.18
2023-03-06T15:03:58.581Z,4.55
2023-03-06T15:06:29.802Z,5.80
2023-03-06T15:09:01.158Z,5.20
2023-03-06T15:11:52.577Z,5.57
2023-03-06T15:14:23.340Z,7.30
2023-03-06T15:16:50.965Z,8.30
2023-03-06T15:19:20.418Z,8.20
2023-03-06T15:21:48.928Z,8.48
2023-03-06T15:24:34.766Z,9.10
2023-03-06T15:27:04.093Z,9.70
2023-03-06T15:29:33.580Z,6.38
2023-03-06T15:32:14.859Z,5.95
2023-03-06T15:34:42.673Z,7.28
2023-03-06T15:37:24.794Z,6.68
2023-03-06T15:40:09.092Z,6.50
2023-03-06T15:42:37.242Z,7.80
2023-03-06T15:45:16.184Z,8.38
2023-03-06T15:47:44.944Z,9.00
2023-03-06T15:50:17.574Z,7.28
2023-03-06T15:52:45.772Z,6.47
2023-03-06T15:55:14.142Z,8.77
2023-03-06T15:57:45.109Z,6.75
2023-03-06T16:00:27.567Z,6.38
2023-03-06T16:02:55.703Z,6.55
2023-03-06T16:05:23.474Z,8.18
2023-03-06T16:07:51.106Z,7.03
2023-03-06T16:10:20.867Z,7.23
2023-03-06T16:12:50.151Z,7.07
2023-03-06T16:15:21.077Z,5.03
2023-03-06T16:17:49.418Z,6.75
2023-03-06T16:20:18.504Z,6.80
2023-03-06T16:22:46.658Z,6.13
2023-03-06T16:25:15.297Z,8.38
2023-03-06T16:27:43.306Z,8.32
2023-03-06T16:30:19.561Z,6.32
2023-03-06T16:32:47.310Z,9.45
2023-03-06T16:35:15.729Z,7.05
2023-03-06T16:37:43.463Z,7.68
2023-03-06T16:40:19.232Z,7.03
2023-03-06T16:42:46.964Z,7.50
2023-03-06T16:45:15.088Z,7.78
2023-03-06T16:47:44.865Z,7.38
2023-03-06T16:50:23.486Z,10.10
2023-03-06T16:52:51.212Z,13.02
2023-03-06T16:55:19.003Z,10.35
2023-03-06T16:57:46.884Z,11.63
2023-03-06T17:00:15.842Z,13.73
2023-03-06T17:02:45.150Z,12.60
2023-03-06T17:05:13.317Z,13.77
2023-03-06T17:07:41.364Z,12.75
2023-03-06T17:10:12.919Z,15.65
2023-03-06T17:12:40.517Z,14.65
2023-03-06T17:15:09.294Z,15.32
2023-03-06T17:17:36.989Z,15.20
2023-03-06T17:20:08.076Z,19.17
2023-03-06T17:22:36.459Z,18.08
2023-03-06T17:25:06.738Z,21.50
2023-03-06T17:27:35.187Z,20.27
2023-03-06T17:30:03.595Z,24.42
2023-03-06T17:32:32.336Z,21.75
2023-03-06T17:35:00.142Z,20.92
2023-03-06T17:37:29.315Z,22.98
2023-03-06T17:39:56.996Z,21.98
2023-03-06T17:42:24.684Z,21.98
2023-03-06T17:44:53.014Z,23.50
2023-03-06T17:47:20.626Z,19.15
2023-03-06T17:49:48.302Z,19.63
2023-03-06T17:52:15.986Z,22.00
2023-03-06T17:54:44.916Z,20.90
2023-03-06T17:57:12.503Z,21.38
2023-03-06T17:59:40.195Z,19.27
2023-03-06T18:02:07.847Z,20.63
2023-03-06T18:04:35.595Z,21.20
2023-03-06T18:07:03.244Z,19.80
2023-03-06T18:09:30.948Z,20.65
2023-03-06T18:11:59.956Z,19.83
2023-03-06T18:14:27.682Z,20.80
2023-03-06T18:16:55.303Z,18.70
2023-03-06T18:19:22.863Z,16.67
2023-03-06T18:21:50.437Z,19.45
2023-03-06T18:24:18.092Z,18.20
2023-03-06T18:26:45.845Z,18.88
2023-03-06T18:29:14.789Z,18.45
2023-03-06T18:31:43.392Z,18.55
2023-03-06T18:34:13.320Z,18.67
2023-03-06T18:36:43.488Z,12.90
2023-03-06T18:39:13.173Z,17.92
2023-03-06T18:41:41.274Z,15.37
2023-03-06T18:44:08.884Z,12.70
2023-03-06T18:46:39.381Z,13.90
2023-03-06T18:49:07.187Z,14.65
2023-03-06T18:51:35.530Z,10.73
2023-03-06T18:54:04.580Z,10.23
2023-03-06T18:56:32.360Z,9.60
2023-03-06T18:59:02.228Z,8.80
2023-03-06T19:01:31.206Z,9.80
2023-03-06T19:04:02.391Z,8.82
2023-03-06T19:06:30.178Z,10.05
2023-03-06T19:08:59.491Z,10.23
2023-03-06T19:11:27.987Z,8.27
2023-03-06T19:13:55.770Z,8.52
2023-03-06T19:16:25.038Z,10.70
2023-03-06T19:18:55.084Z,10.17
2023-03-06T19:21:25.664Z,12.52
2023-03-06T19:23:53.555Z,14.85
2023-03-06T19:26:21.193Z,12.70
2023-03-06T19:28:49.445Z,12.07
2023-03-06T19:31:20.030Z,11.63
2023-03-06T19:33:48.587Z,10.35
2023-03-06T19:36:17.324Z,10.52
2023-03-06T19:38:50.256Z,11.52
2023-03-06T19:41:17.855Z,10.57
2023-03-06T19:43:45.491Z,9.03
2023-03-06T19:46:14.122Z,8.83
2023-03-06T19:48:41.959Z,8.45
2023-03-06T19:51:10.120Z,10.23
2023-03-06T19:53:38.698Z,9.32
2023-03-06T19:56:09.770Z,9.38
2023-03-06T19:58:37.469Z,7.57
2023-03-06T20:01:06.906Z,7.15
2023-03-06T20:03:34.734Z,7.00
2023-03-06T20:06:02.943Z,8.93
2023-03-06T20:08:30.523Z,5.88
2023-03-06T20:10:58.129Z,4.72
2023-03-06T20:13:27.223Z,3.83
2023-03-06T20:15:54.836Z,5.97
2023-03-06T20:18:22.651Z,6.72
2023-03-06T20:20:58.349Z,2.70
2023-03-06T20:23:26.119Z,4.10
2023-03-06T20:25:53.990Z,5.25
2023-03-06T20:28:21.708Z,3.85
2023-03-06T20:30:50.728Z,4.93
2023-03-06T20:33:19.600Z,9.95
2023-03-06T20:35:47.424Z,4.10
2023-03-06T20:38:15.256Z,2.20
2023-03-06T20:40:43.474Z,4.67
2023-03-06T20:43:11.137Z,4.97
2023-03-06T20:45:38.739Z,4.20
2023-03-06T20:48:07.854Z,5.95
2023-03-06T20:50:35.501Z,6.03
2023-03-06T20:53:03.155Z,6.10
2023-03-06T20:55:30.723Z,4.55
2023-03-06T20:57:58.372Z,5.50
2023-03-06T21:00:25.964Z,2.88
2023-03-06T21:02:53.723Z,3.95
2023-03-06T21:05:22.747Z,5.55
2023-03-06T21:07:50.370Z,4.88
2023-03-06T21:10:18.412Z,7.53
2023-03-06T21:12:45.994Z,3.83
2023-03-06T21:15:13.824Z,6.13
2023-03-06T21:17:41.629Z,5.55
2023-03-06T21:20:10.533Z,3.58
2023-03-06T21:22:39.510Z,5.05
2023-03-06T21:25:07.379Z,4.50
2023-03-06T21:27:35.005Z,4.00
2023-03-06T21:30:03.231Z,5.57
2023-03-06T21:32:31.038Z,7.82
2023-03-06T21:34:58.746Z,7.20
2023-03-06T21:37:26.405Z,7.95
2023-03-06T21:39:55.496Z,6.60
2023-03-06T21:42:23.105Z,3.83
2023-03-06T21:44:50.701Z,4.60
2023-03-06T21:47:18.304Z,4.50
2023-03-06T21:49:45.929Z,5.30
2023-03-06T21:52:13.589Z,3.40
2023-03-06T21:54:41.342Z,3.05
2023-03-06T21:57:10.308Z,4.90
2023-03-06T21:59:38.014Z,3.20
2023-03-06T22:02:05.811Z,4.45
2023-03-06T22:04:33.465Z,5.78
2023-03-06T22:07:01.154Z,4.78
2023-03-06T22:09:28.704Z,3.87
2023-03-06T22:11:57.274Z,3.70
2023-03-06T22:14:26.370Z,2.63
2023-03-06T22:16:54.009Z,2.83
2023-03-06T22:19:21.562Z,3.35
2023-03-06T22:21:49.123Z,5.45
2023-03-06T22:24:16.684Z,6.30
2023-03-06T22:26:44.234Z,4.55
2023-03-06T22:29:11.826Z,4.93
2023-03-06T22:31:40.851Z,2.55
2023-03-06T22:34:08.713Z,3.15
2023-03-06T22:36:36.283Z,4.82
2023-03-06T22:39:05.124Z,2.78
2023-03-06T22:41:32.846Z,4.32
2023-03-06T22:44:01.950Z,3.85
2023-03-06T22:46:30.374Z,3.88
2023-03-06T22:49:00.436Z,4.57
2023-03-06T22:51:29.376Z,3.63
2023-03-06T22:53:56.953Z,3.95
2023-03-06T22:56:24.856Z,5.53
2023-03-06T22:58:52.506Z,4.82
2023-03-06T23:01:21.419Z,4.43
2023-03-06T23:03:50.997Z,5.78
2023-03-06T23:06:21.624Z,4.97
2023-03-06T23:08:51.024Z,4.95
2023-03-06T23:11:19.452Z,3.60
2023-03-06T23:13:47.507Z,6.07
2023-03-06T23:16:15.328Z,9.20
2023-03-06T23:18:43.229Z,6.20
2023-03-06T23:21:12.432Z,5.07
2023-03-06T23:23:41.682Z,5.03
2023-03-06T23:26:10.130Z,6.40
2023-03-06T23:28:37.674Z,5.45
2023-03-06T23:31:08.177Z,8.30
2023-03-06T23:33:36.903Z,6.97
2023-03-06T23:36:06.063Z,8.15
2023-03-06T23:38:33.790Z,9.30
2023-03-06T23:41:04.243Z,12.85
2023-03-06T23:43:31.952Z,9.40
2023-03-06T23:45:59.825Z,11.07
2023-03-06T23:48:28.318Z,8.85
2023-03-06T23:50:56.155Z,6.28
2023-03-06T23:53:24.058Z,6.13
2023-03-06T23:55:52.286Z,8.43
2023-03-06T23:58:21.407Z,8.15
